Data for 08/27/2017

Time Sea-Level Adjusted Pressure Absolute Pressure Temperature Relative Humidity Dew Point   
(mb) (inHg) (mb) (inHg) (C) (F) (%) (C) (F)
00:05 1026 30.3 855 25.25 19.9 67.9 22 -2.5 27.5
00:10 1026 30.3 855 25.25 19.8 67.7 22 -2.6 27.3
00:15 1026 30.3 855 25.25 19.7 67.4 22 -2.5 27.5
00:20 1026 30.3 855 25.25 19.5 67.1 22 -2.7 27.1
00:25 1026 30.3 855 25.25 19.4 67 23 -2.4 27.7
00:30 1026 30.3 855 25.25 18.9 66.1 27 -0.4 31.2
00:35 1026 30.3 855 25.25 18.3 64.9 26 -1.2 29.9
00:40 1026 30.3 855 25.25 17.9 64.3 29 -0.2 31.7
00:45 1026 30.3 855 25.25 17.2 62.9 30 -0.6 30.9
00:50 1026 30.3 855 25.25 17.1 62.8 31 -0.1 31.8
00:55 1026 30.3 855 25.25 16.8 62.3 31 -0.2 31.7
01:00 1026 30.3 855 25.25 16.6 61.9 31 -0.6 30.9
01:05 1026 30.3 855 25.25 16.5 61.7 31 -0.5 31.2
01:10 1026 30.3 855 25.25 16.5 61.7 30 -0.9 30.3
01:15 1026 30.3 855 25.25 16.6 61.8 31 -0.7 30.7
01:20 1026 30.3 855 25.25 16.5 61.7 30 -0.9 30.3
01:25 1026 30.3 855 25.25 16.5 61.7 30 -0.8 30.5
01:30 1026 30.3 855 25.25 16.5 61.6 29 -1.5 29.3
01:35 1026 30.3 855 25.25 16.6 61.9 29 -1.4 29.5
01:40 1026 30.3 855 25.25 16.5 61.7 30 -1.1 30
01:45 1026 30.3 855 25.25 16.2 61.2 31 -0.9 30.4
01:50 1026 30.3 855 25.25 15.9 60.6 31 -1 30.2
01:55 1026 30.3 855 25.25 15.5 59.9 33 -0.7 30.8
02:00 1026 30.3 855 25.25 15.1 59.3 33 -0.8 30.6
02:05 1026 30.3 855 25.25 15.1 59.1 33 -0.9 30.3
02:10 1026 30.3 855 25.25 15.2 59.3 32 -1.5 29.4
02:15 1026 30.3 855 25.25 15.6 60.1 31 -1.3 29.7
02:20 1026 30.3 855 25.25 15.8 60.5 31 -1.3 29.6
02:25 1026 30.3 855 25.25 15.9 60.6 31 -1.3 29.7
02:30 1026 30.3 855 25.25 15.9 60.6 30 -1.3 29.6
02:35 1026 30.3 856 25.28 15.8 60.4 31 -1 30.1
02:40 1026 30.3 856 25.28 15.5 59.9 32 -1.1 30
02:45 1026 30.3 856 25.28 15.4 59.7 32 -1.2 29.9
02:50 1026 30.3 856 25.28 15.5 59.8 32 -1.2 29.8
02:55 1026 30.3 856 25.28 15.5 59.9 32 -1 30.2
03:00 1026 30.3 856 25.28 15.5 59.9 32 -0.9 30.3
03:05 1026 30.3 856 25.28 15.5 59.9 32 -1 30.3
03:10 1026 30.3 856 25.28 15.4 59.6 33 -0.8 30.5
03:15 1026 30.3 856 25.28 15.3 59.5 33 -0.9 30.4
03:20 1026 30.3 856 25.28 15.3 59.5 33 -0.8 30.5
03:25 1027 30.33 856 25.28 15.2 59.4 33 -0.7 30.7
03:30 1026 30.3 856 25.28 15.2 59.3 33 -1 30.2
03:35 1026 30.3 856 25.28 15.2 59.4 32 -1.2 29.9
03:40 1026 30.3 856 25.28 15.2 59.4 33 -0.9 30.5
03:45 1026 30.3 856 25.28 15.2 59.3 32 -1.2 29.9
03:50 1026 30.3 856 25.28 15.3 59.6 33 -0.9 30.5
03:55 1026 30.3 856 25.28 15.1 59.2 34 -0.6 30.9
04:00 1027 30.33 856 25.28 14.9 58.8 33 -1 30.2
04:05 1027 30.33 856 25.28 14.8 58.6 35 -0.3 31.4
04:10 1027 30.33 856 25.28 14.7 58.5 34 -1 30.1
04:15 1027 30.33 856 25.28 14.7 58.5 35 -0.4 31.3
04:20 1026 30.3 856 25.28 14.9 58.8 32 -1.5 29.3
04:25 1027 30.33 856 25.28 15.3 59.5 32 -1.1 30
04:30 1027 30.33 856 25.28 15.3 59.5 32 -1.2 29.8
04:35 1026 30.3 856 25.28 15.2 59.3 33 -1 30.2
04:40 1026 30.3 856 25.28 15 58.9 34 -0.8 30.6
04:45 1027 30.33 856 25.28 14.6 58.2 34 -0.9 30.3
04:50 1026 30.3 856 25.28 14.7 58.5 33 -1.2 29.8
04:55 1027 30.33 856 25.28 14.9 58.9 34 -0.9 30.4
05:00 1027 30.33 856 25.28 15 58.9 33 -1.1 30.1
05:05 1027 30.33 856 25.28 14.8 58.7 34 -0.9 30.4
05:10 1026 30.3 856 25.28 14.4 58 34 -1.1 30
05:15 1027 30.33 856 25.28 14.5 58.1 35 -0.9 30.5
05:20 1027 30.33 856 25.28 14.5 58 34 -1.1 30
05:25 1027 30.33 856 25.28 14.6 58.2 35 -0.6 30.9
05:30 1027 30.33 856 25.28 14.5 58.1 35 -0.8 30.6
05:35 1027 30.33 856 25.28 14.3 57.8 36 -0.6 30.9
05:40 1027 30.33 856 25.28 14.2 57.5 36 -0.5 31
05:45 1027 30.33 856 25.28 14.1 57.3 36 -0.8 30.5
05:50 1027 30.33 856 25.28 13.9 57.1 37 -0.4 31.3
05:55 1027 30.33 856 25.28 13.7 56.7 37 -0.6 31
06:00 1027 30.33 856 25.28 13.8 56.9 37 -0.7 30.8
06:05 1027 30.33 856 25.28 13.9 57 36 -0.9 30.3
06:10 1027 30.33 856 25.28 14 57.1 36 -0.9 30.4
06:15 1027 30.33 856 25.28 14 57.2 36 -0.6 30.8
06:20 1027 30.33 856 25.28 14.1 57.4 36 -0.6 30.9
06:25 1027 30.33 856 25.28 13.9 57 37 -0.6 30.9
06:30 1027 30.33 856 25.28 13.8 56.9 38 -0.3 31.4
06:35 1027 30.33 856 25.28 13.6 56.4 39 -0.1 31.8
06:40 1027 30.33 856 25.28 13.3 56 38 -0.5 31.1
06:45 1027 30.33 856 25.28 13.6 56.5 37 -0.6 30.9
06:50 1027 30.33 856 25.28 13.8 56.9 37 -0.6 30.9
06:55 1027 30.33 856 25.28 13.7 56.7 38 -0.4 31.3
07:00 1027 30.33 856 25.28 13.7 56.7 37 -0.5 31.1
07:05 1027 30.33 856 25.28 14 57.2 37 -0.5 31.1
07:10 1027 30.33 856 25.28 14 57.2 38 -0.1 31.8
07:15 1027 30.33 856 25.28 13.8 56.9 39 0 32.1
07:20 1027 30.33 856 25.28 13.7 56.7 38 -0.1 31.8
07:25 1027 30.33 856 25.28 13.8 56.9 38 -0.2 31.7
07:30 1027 30.33 856 25.28 14.1 57.4 37 -0.4 31.2
07:35 1027 30.33 856 25.28 14.5 58.1 36 -0.3 31.4
07:40 1027 30.33 856 25.28 14.6 58.4 36 -0 32
07:40 1027 30.33 856 25.28 14.6 58.4 36 -0 32
07:45 1027 30.33 856 25.28 14.5 58.2 38 0.4 32.8
07:50 1027 30.33 856 25.28 14.3 57.7 38 0.3 32.5
07:55 1027 30.33 856 25.28 14.3 57.7 41 1.4 34.4
08:00 1027 30.33 856 25.28 14.1 57.4 43 1.8 35.3
08:05 1027 30.33 856 25.28 14 57.2 41 1 33.8
08:10 1027 30.33 856 25.28 14.5 58.1 40 1.2 34.2
08:15 1027 30.33 856 25.28 14.8 58.7 38 0.8 33.4
08:20 1027 30.33 857 25.31 15.4 59.7 35 0.3 32.5
08:25 1027 30.33 857 25.31 15.9 60.6 38 1.6 34.8
08:30 1027 30.33 857 25.31 16 60.9 38 1.9 35.5
08:35 1027 30.33 857 25.31 15.8 60.4 39 1.9 35.4
08:40 1027 30.33 856 25.28 15.8 60.4 38 1.4 34.6
08:45 1027 30.33 856 25.28 15.9 60.5 37 1.3 34.3
08:50 1027 30.33 856 25.28 16 60.9 36 0.9 33.7
08:55 1027 30.33 856 25.28 16.3 61.3 37 1.5 34.7
09:00 1027 30.33 856 25.28 17 62.5 34 0.9 33.7
09:05 1027 30.33 856 25.28 17.3 63.1 34 1.5 34.7
09:10 1027 30.33 856 25.28 17.8 64 33 1.4 34.6
09:15 1027 30.33 856 25.28 18.1 64.5 33 1.8 35.3
09:20 1027 30.33 856 25.28 18.5 65.2 31 1.1 34
09:25 1027 30.33 856 25.28 18.6 65.5 30 0.9 33.6
09:30 1027 30.33 856 25.28 19.3 66.7 29 0.9 33.6
09:35 1027 30.33 857 25.31 19.7 67.4 28 0.9 33.6
09:40 1027 30.33 857 25.31 19.9 67.8 27 0.5 33
09:45 1027 30.33 856 25.28 20.2 68.3 28 1.2 34.1
09:50 1027 30.33 856 25.28 20.3 68.5 27 1 33.9
09:55 1027 30.33 856 25.28 20.8 69.5 27 1.3 34.4
10:00 1027 30.33 856 25.28 21.2 70.1 25 0.7 33.2
10:05 1027 30.33 856 25.28 21.1 70 26 1.2 34.2
10:10 1027 30.33 856 25.28 21.3 70.3 26 1.3 34.3
10:15 1027 30.33 856 25.28 21.9 71.4 24 0.8 33.4
10:20 1027 30.33 856 25.28 21.8 71.2 25 1 33.9
10:25 1027 30.33 856 25.28 22 71.6 25 1.2 34.2
10:30 1027 30.33 856 25.28 22.4 72.3 25 1.5 34.7
10:35 1027 30.33 856 25.28 22.6 72.7 24 1.1 33.9
10:40 1027 30.33 856 25.28 22.5 72.5 24 1.3 34.3
10:45 1027 30.33 856 25.28 22.9 73.2 24 1.5 34.7
10:50 1027 30.33 856 25.28 23.2 73.8 25 2.2 35.9
10:55 1027 30.33 856 25.28 23.3 73.9 24 1.7 35
11:00 1027 30.33 856 25.28 23.7 74.7 23 1.4 34.4
11:05 1027 30.33 856 25.28 24.1 75.4 22 1.2 34.2
11:10 1027 30.33 856 25.28 23.9 74.9 24 2.3 36.1
11:15 1027 30.33 856 25.28 24 75.2 24 2.3 36.2
11:20 1027 30.33 856 25.28 24.1 75.3 23 1.8 35.2
11:25 1027 30.33 856 25.28 24.4 75.8 22 1.8 35.2
11:30 1027 30.33 856 25.28 24.5 76.1 21 1.1 34
11:35 1027 30.33 856 25.28 24.7 76.5 21 0.9 33.6
11:40 1027 30.33 856 25.28 24.5 76.1 20 0.5 33
11:45 1027 30.33 856 25.28 24.7 76.5 21 1.4 34.6
11:50 1027 30.33 856 25.28 25 77.1 20 0.7 33.3
11:55 1027 30.33 856 25.28 25.7 78.3 19 0.9 33.6
12:00 1027 30.33 856 25.28 26.3 79.3 19 1 33.7
12:05 1027 30.33 856 25.28 26.1 79 20 1.7 35
12:10 1027 30.33 856 25.28 25.9 78.7 19 0.8 33.4
12:15 1026 30.3 856 25.28 26.1 79 19 0.8 33.4
12:20 1026 30.3 856 25.28 26.3 79.4 19 1.1 34
12:25 1026 30.3 856 25.28 26.4 79.6 19 1.6 34.8
12:30 1026 30.3 856 25.28 26.7 80 19 1.5 34.7
12:35 1026 30.3 855 25.25 26.9 80.3 18 1 33.7
12:40 1026 30.3 855 25.25 26.8 80.2 18 1 33.8
12:45 1026 30.3 855 25.25 27.1 80.8 18 1.4 34.5
12:50 1026 30.3 855 25.25 27.3 81.1 18 1.4 34.4
12:55 1026 30.3 855 25.25 27.1 80.8 16 -0.2 31.6
13:00 1026 30.3 855 25.25 26.8 80.3 17 0.3 32.5
13:05 1026 30.3 855 25.25 26.7 80.1 15 -1.5 29.3
13:10 1026 30.3 855 25.25 27.1 80.9 15 -1.6 29.1
13:15 1026 30.3 855 25.25 28.1 82.6 14 -1.3 29.6
13:20 1026 30.3 855 25.25 27.6 81.6 15 -0.7 30.8
13:25 1026 30.3 855 25.25 27.9 82.2 16 -0.3 31.4
13:30 1026 30.3 855 25.25 28.3 83 14 -1.1 30
13:35 1026 30.3 855 25.25 27.9 82.3 16 0.1 32.2
13:40 1026 30.3 855 25.25 28.1 82.6 14 -1.2 29.8
13:45 1026 30.3 855 25.25 29 84.2 14 -0.5 31.2
13:50 1026 30.3 855 25.25 29.2 84.5 14 -1 30.2
13:55 1025 30.27 855 25.25 28.9 84 14 -0.5 31.2
14:00 1025 30.27 855 25.25 29.3 84.8 14 -0.7 30.8
14:05 1025 30.27 855 25.25 29.8 85.6 14 -0.5 31
14:10 1025 30.27 855 25.25 29.7 85.4 14 -0.2 31.6
14:15 1025 30.27 854 25.22 29.2 84.5 13 -1.7 28.9
14:20 1025 30.27 854 25.22 29.1 84.4 13 -2.1 28.2
14:25 1025 30.27 854 25.22 29 84.2 13 -1.9 28.6
14:30 1025 30.27 854 25.22 30 86 13 -1.5 29.2
14:35 1025 30.27 854 25.22 30.3 86.6 11 -2.6 27.2
14:40 1025 30.27 854 25.22 30.3 86.5 12 -1.6 29.1
14:45 1025 30.27 854 25.22 29 84.1 13 -2.4 27.7
14:50 1025 30.27 854 25.22 29.2 84.6 13 -2.1 28.3
14:55 1025 30.27 854 25.22 29.3 84.8 13 -2 28.4
15:00 1025 30.27 854 25.22 30.1 86.1 12 -2 28.4
15:05 1025 30.27 854 25.22 30.4 86.8 12 -2.1 28.1
15:10 1025 30.27 854 25.22 30.5 86.8 11 -2.8 27
15:15 1025 30.27 854 25.22 30.5 87 12 -2.2 28.1
15:20 1024 30.24 854 25.22 30.2 86.3 12 -1.9 28.5
15:25 1024 30.24 854 25.22 30.7 87.2 11 -2.3 27.9
15:30 1024 30.24 854 25.22 30.6 87.1 12 -1.8 28.8
15:35 1024 30.24 854 25.22 30 86 12 -1.8 28.7
15:40 1024 30.24 853 25.19 30.6 87.1 13 -0.8 30.5
15:45 1024 30.24 853 25.19 31 87.9 12 -1.8 28.7
15:50 1024 30.24 853 25.19 30.9 87.6 13 -0.2 31.7
15:55 1024 30.24 853 25.19 30.3 86.5 12 -2.1 28.2
16:00 1024 30.24 853 25.19 30.9 87.7 12 -1.5 29.3
16:05 1024 30.24 853 25.19 31 87.7 12 -1.8 28.8
16:10 1024 30.24 853 25.19 31 87.8 12 -1.6 29.1
16:15 1024 30.24 853 25.19 31 87.7 12 -1.6 29.1
16:20 1024 30.24 853 25.19 30.9 87.6 12 -1.5 29.2
16:25 1024 30.24 853 25.19 30.7 87.2 13 -0.3 31.5
16:30 1024 30.24 853 25.19 30.6 87.1 12 -1.9 28.5
16:35 1024 30.24 853 25.19 30.6 87.1 12 -2 28.5
16:40 1024 30.24 853 25.19 30.4 86.8 12 -2 28.4
16:45 1024 30.24 853 25.19 31 87.7 12 -1.1 30.1
16:45 1024 30.24 853 25.19 31 87.7 12 -1.1 30.1
16:50 1024 30.24 853 25.19 31 87.8 12 -1.1 30.1
16:55 1024 30.24 853 25.19 30.6 87.1 12 -1.6 29.2
17:00 1024 30.24 853 25.19 30.8 87.4 12 -1.5 29.3
17:05 1024 30.24 853 25.19 30.6 87.1 12 -1.6 29.1
17:10 1024 30.24 853 25.19 30.6 87.1 12 -1.7 28.9
17:15 1023 30.21 853 25.19 30.4 86.6 13 -0.3 31.4
17:20 1023 30.21 853 25.19 30.4 86.8 12 -1.7 28.9
17:25 1023 30.21 853 25.19 30.5 86.9 12 -1.6 29.1
17:30 1023 30.21 853 25.19 30.4 86.7 12 -1.5 29.3
17:35 1023 30.21 853 25.19 30.2 86.3 13 -0.9 30.3
17:40 1023 30.21 853 25.19 30.5 86.9 12 -1.5 29.3
17:45 1023 30.21 853 25.19 30.6 87 13 -0.8 30.5
17:50 1023 30.21 853 25.19 30.6 87 12 -1.6 29.2
17:55 1023 30.21 853 25.19 30.7 87.3 12 -1.2 29.8
18:00 1023 30.21 853 25.19 30.5 86.9 12 -1.8 28.7
18:05 1023 30.21 853 25.19 30.5 86.9 13 -1.2 29.8
18:10 1023 30.21 853 25.19 30.2 86.4 13 -0.5 31.1
18:15 1023 30.21 853 25.19 29.9 85.8 13 -1.5 29.3
18:20 1023 30.21 853 25.19 30.2 86.3 16 1.5 34.8
18:25 1023 30.21 852 25.16 30.2 86.4 13 -1 30.3
18:30 1023 30.21 852 25.16 30.2 86.3 13 -0.5 31.1
18:35 1023 30.21 852 25.16 29.6 85.3 14 -0.3 31.4
18:40 1023 30.21 852 25.16 29.2 84.6 15 -0.1 31.7
18:45 1023 30.21 852 25.16 29.1 84.5 18 2.7 36.9
18:50 1023 30.21 852 25.16 29 84.2 14 -1 30.1
18:55 1023 30.21 852 25.16 29 84.1 13 -1.6 29.1
19:00 1023 30.21 852 25.16 29 84.2 14 -1.4 29.6
19:05 1023 30.21 852 25.16 29 84.1 15 0.4 32.7
19:10 1023 30.21 852 25.16 28.6 83.6 18 2.4 36.3
19:15 1023 30.21 852 25.16 28.1 82.7 17 0.9 33.6
19:20 1023 30.21 852 25.16 27.9 82.3 17 1.3 34.3
19:25 1023 30.21 852 25.16 27.7 81.9 17 1 33.9
19:30 1023 30.21 852 25.16 27.6 81.6 17 0.5 32.9
19:35 1023 30.21 852 25.16 27.5 81.5 17 0.7 33.2
19:40 1023 30.21 852 25.16 27.1 80.8 21 3.2 37.8
19:45 1023 30.21 852 25.16 26.7 80.1 24 4.8 40.6
19:50 1023 30.21 852 25.16 26.2 79.1 26 5.6 42
19:55 1023 30.21 852 25.16 25.6 78.1 25 4.6 40.2
20:00 1023 30.21 852 25.16 24.9 76.9 25 3.9 38.9
20:05 1023 30.21 852 25.16 24.5 76 29 5.4 41.8
20:10 1023 30.21 852 25.16 24 75.3 26 3.4 38.2
20:15 1023 30.21 852 25.16 23.8 74.8 25 2.6 36.7
20:20 1023 30.21 852 25.16 23.6 74.5 25 2.5 36.5
20:25 1023 30.21 852 25.16 23.2 73.7 26 3 37.4
20:30 1023 30.21 852 25.16 22.9 73.2 27 2.9 37.3
20:35 1023 30.21 852 25.16 22.8 73 28 3.7 38.7
20:40 1023 30.21 852 25.16 21.9 71.4 33 5 41
20:45 1023 30.21 852 25.16 21 69.8 31 3.4 38.2
20:50 1023 30.21 852 25.16 21.3 70.4 27 2 35.6
20:55 1023 30.21 853 25.19 21.5 70.8 30 3.2 37.8
21:00 1023 30.21 853 25.19 21.3 70.4 28 2.2 36
21:05 1023 30.21 853 25.19 21.4 70.5 29 2.8 37.1
21:10 1023 30.21 853 25.19 20.8 69.4 29 2 35.7
21:15 1023 30.21 853 25.19 20.5 69 27 0.9 33.7
21:20 1023 30.21 853 25.19 21.1 69.9 25 0.6 33.1
21:25 1023 30.21 853 25.19 21.2 70.2 23 -0.5 31.1
21:30 1024 30.24 853 25.19 21.6 70.9 23 -0.3 31.4
21:35 1024 30.24 853 25.19 21.5 70.6 23 -0.4 31.3
21:40 1024 30.24 853 25.19 21.4 70.5 23 -0.4 31.3
21:45 1024 30.24 853 25.19 21.4 70.5 23 -0.7 30.8
21:50 1024 30.24 853 25.19 21.5 70.6 23 -0.4 31.3
21:55 1024 30.24 853 25.19 21 69.9 24 0 32.1
22:00 1024 30.24 853 25.19 20.9 69.7 24 -0.3 31.4
22:05 1024 30.24 853 25.19 20.7 69.3 25 -0.1 31.8
22:10 1024 30.24 853 25.19 20.3 68.6 25 -0.3 31.5
22:15 1024 30.24 853 25.19 20.4 68.6 25 -0.2 31.7
22:20 1024 30.24 853 25.19 20.2 68.4 25 -0.1 31.8
22:25 1024 30.24 853 25.19 20.1 68.1 25 -0.2 31.6
22:30 1024 30.24 853 25.19 20 68 26 -0.2 31.7
22:35 1024 30.24 853 25.19 19.9 67.7 25 -0.4 31.4
22:40 1024 30.24 853 25.19 19.7 67.4 26 0 32
22:45 1024 30.24 853 25.19 19.3 66.7 26 -0.5 31.2
22:50 1024 30.24 853 25.19 19.6 67.3 25 -1.1 30.1
22:55 1024 30.24 853 25.19 19.9 67.8 24 -0.9 30.5
23:00 1024 30.24 853 25.19 19.8 67.6 26 -0.4 31.3
23:05 1024 30.24 853 25.19 19.4 66.8 26 -0.5 31.2
23:10 1024 30.24 853 25.19 19.1 66.4 26 -0.4 31.2
23:15 1024 30.24 853 25.19 19 66.2 26 -1 30.3
23:20 1024 30.24 853 25.19 19.1 66.3 25 -1 30.2
23:25 1024 30.24 853 25.19 19.2 66.5 26 -0.8 30.6
23:30 1024 30.24 853 25.19 19.2 66.5 25 -1 30.3
23:35 1024 30.24 853 25.19 19.2 66.5 25 -1 30.1
23:40 1024 30.24 853 25.19 19.3 66.7 25 -1.2 29.8
23:45 1024 30.24 853 25.19 19.3 66.7 25 -1.2 29.8
23:50 1024 30.24 853 25.19 19.3 66.7 25 -1.2 29.8
23:55 1024 30.24 853 25.19 19.3 66.7 24 -1.5 29.4
24:00 1024 30.24 853 25.19 19.5 67.1 23 -1.8 28.8